createdAt,value
2023-02-24T00:02:00.221Z,5.88
2023-02-24T00:04:29.587Z,5.05
2023-02-24T00:06:56.437Z,5.80
2023-02-24T00:09:28.786Z,5.78
2023-02-24T00:11:59.892Z,5.18
2023-02-24T00:14:33.265Z,5.35
2023-02-24T00:17:00.670Z,5.57
2023-02-24T00:19:32.727Z,5.78
2023-02-24T00:22:00.950Z,5.50
2023-02-24T00:24:28.291Z,7.40
2023-02-24T00:26:57.147Z,5.40
2023-02-24T00:29:25.073Z,5.53
2023-02-24T00:32:00.363Z,6.43
2023-02-24T00:34:33.561Z,5.53
2023-02-24T00:37:01.376Z,5.30
2023-02-24T00:39:35.227Z,6.32
2023-02-24T00:42:04.985Z,5.90
2023-02-24T00:44:40.233Z,5.78
2023-02-24T00:47:08.749Z,5.70
2023-02-24T00:49:42.426Z,6.15
2023-02-24T00:52:14.886Z,6.10
2023-02-24T00:54:45.901Z,6.45
2023-02-24T00:57:13.215Z,6.25
2023-02-24T00:59:40.595Z,5.93
2023-02-24T01:02:08.114Z,5.45
2023-02-24T01:04:35.422Z,5.85
2023-02-24T01:07:02.298Z,5.82
2023-02-24T01:09:31.992Z,6.03
2023-02-24T01:12:18.275Z,5.50
2023-02-24T01:14:47.862Z,5.25
2023-02-24T01:17:15.968Z,6.00
2023-02-24T01:19:44.309Z,5.82
2023-02-24T01:22:15.082Z,5.50
2023-02-24T01:24:43.915Z,5.72
2023-02-24T01:27:12.727Z,5.30
2023-02-24T01:29:39.900Z,5.93
2023-02-24T01:32:08.495Z,5.90
2023-02-24T01:34:35.350Z,4.93
2023-02-24T01:37:02.402Z,5.50
2023-02-24T01:39:29.096Z,6.55
2023-02-24T01:41:56.110Z,5.80
2023-02-24T01:44:24.070Z,6.35
2023-02-24T01:46:53.005Z,5.07
2023-02-24T01:49:37.909Z,6.35
2023-02-24T01:52:20.106Z,5.38
2023-02-24T01:54:55.108Z,5.47
2023-02-24T01:57:24.215Z,4.82
2023-02-24T01:59:54.035Z,5.35
2023-02-24T02:02:23.481Z,5.60
2023-02-24T02:04:58.854Z,6.63
2023-02-24T02:07:28.627Z,6.28
2023-02-24T02:10:00.344Z,5.03
2023-02-24T02:12:29.036Z,5.35
2023-02-24T02:14:59.574Z,5.80
2023-02-24T02:17:43.845Z,4.60
2023-02-24T02:20:38.573Z,5.70
2023-02-24T02:23:40.972Z,5.63
2023-02-24T02:26:21.196Z,5.68
2023-02-24T02:29:02.880Z,5.68
2023-02-24T02:31:55.453Z,5.05
2023-02-24T02:34:41.012Z,5.28
2023-02-24T02:37:20.198Z,5.82
2023-02-24T02:39:49.794Z,5.10
2023-02-24T02:42:30.189Z,4.07
2023-02-24T02:44:59.939Z,5.60
2023-02-24T02:47:35.705Z,4.40
2023-02-24T02:50:24.154Z,5.10
2023-02-24T02:53:24.629Z,5.13
2023-02-24T02:56:09.717Z,5.50
2023-02-24T02:58:40.572Z,5.20
2023-02-24T03:01:09.629Z,4.95
2023-02-24T03:03:41.121Z,5.05
2023-02-24T03:06:22.388Z,5.05
2023-02-24T03:08:59.404Z,5.18
2023-02-24T03:11:27.012Z,5.47
2023-02-24T03:13:57.613Z,5.20
2023-02-24T03:16:27.245Z,7.97
2023-02-24T03:18:59.881Z,5.40
2023-02-24T03:21:51.924Z,5.10
2023-02-24T03:24:19.164Z,5.50
2023-02-24T03:27:20.074Z,4.68
2023-02-24T03:29:58.473Z,4.80
2023-02-24T03:32:33.518Z,6.10
2023-02-24T03:35:19.655Z,5.15
2023-02-24T03:37:50.043Z,5.45
2023-02-24T03:40:18.281Z,5.45
2023-02-24T03:42:52.239Z,5.20
2023-02-24T03:45:22.570Z,5.10
2023-02-24T03:47:51.160Z,5.35
2023-02-24T03:50:22.000Z,4.85
2023-02-24T03:53:20.729Z,5.38
2023-02-24T03:56:11.000Z,4.97
2023-02-24T03:59:04.885Z,4.28
2023-02-24T04:01:46.495Z,5.05
2023-02-24T04:04:23.885Z,4.40
2023-02-24T04:07:26.464Z,5.00
2023-02-24T04:10:16.846Z,5.10
2023-02-24T04:13:02.170Z,5.50
2023-02-24T04:15:38.322Z,5.50
2023-02-24T04:18:18.731Z,4.47
2023-02-24T04:20:51.152Z,5.80
2023-02-24T04:23:21.864Z,4.97
2023-02-24T04:25:52.553Z,5.00
2023-02-24T04:28:22.641Z,4.80
2023-02-24T04:30:57.629Z,4.50
2023-02-24T04:33:24.592Z,5.40
2023-02-24T04:35:51.395Z,5.40
2023-02-24T04:38:18.754Z,5.18
2023-02-24T04:40:45.702Z,4.97
2023-02-24T04:43:13.109Z,5.00
2023-02-24T04:45:40.396Z,5.97
2023-02-24T04:48:12.998Z,4.63
2023-02-24T04:50:42.307Z,5.30
2023-02-24T04:53:11.803Z,5.53
2023-02-24T04:55:45.425Z,4.82
2023-02-24T04:58:19.138Z,5.32
2023-02-24T05:00:48.971Z,5.38
2023-02-24T05:03:17.294Z,5.47
2023-02-24T05:06:00.359Z,5.57
2023-02-24T05:08:29.003Z,5.00
2023-02-24T05:11:00.872Z,4.90
2023-02-24T05:13:31.774Z,4.90
2023-02-24T05:16:04.254Z,5.35
2023-02-24T05:18:36.982Z,5.38
2023-02-24T05:21:31.764Z,4.47
2023-02-24T05:23:59.513Z,5.25
2023-02-24T05:26:27.071Z,5.97
2023-02-24T05:28:56.683Z,5.70
2023-02-24T05:31:27.172Z,5.47
2023-02-24T05:34:01.464Z,5.90
2023-02-24T05:36:35.125Z,5.28
2023-02-24T05:39:12.080Z,5.18
2023-02-24T05:41:41.848Z,4.90
2023-02-24T05:44:12.670Z,5.97
2023-02-24T05:46:42.395Z,5.10
2023-02-24T05:49:15.577Z,5.07
2023-02-24T05:51:54.449Z,5.53
2023-02-24T05:54:29.873Z,5.80
2023-02-24T05:57:02.346Z,5.38
2023-02-24T05:59:34.906Z,4.78
2023-02-24T06:02:09.177Z,6.03
2023-02-24T06:04:41.122Z,6.53
2023-02-24T06:07:20.012Z,4.90
2023-02-24T06:09:50.426Z,5.47
2023-02-24T06:12:18.352Z,6.00
2023-02-24T06:14:45.228Z,6.03
2023-02-24T06:17:12.154Z,4.90
2023-02-24T06:19:41.238Z,5.03
2023-02-24T06:22:11.758Z,6.93
2023-02-24T06:24:39.381Z,5.03
2023-02-24T06:27:10.463Z,5.28
2023-02-24T06:29:37.904Z,5.53
2023-02-24T06:32:11.303Z,5.40
2023-02-24T06:34:39.102Z,6.40
2023-02-24T06:37:07.407Z,6.20
2023-02-24T06:39:36.615Z,6.15
2023-02-24T06:42:05.131Z,5.97
2023-02-24T06:44:32.868Z,5.63
2023-02-24T06:47:00.131Z,7.20
2023-02-24T06:49:27.602Z,5.97
2023-02-24T06:51:55.165Z,6.90
2023-02-24T06:54:22.829Z,5.35
2023-02-24T06:56:50.026Z,6.25
2023-02-24T06:59:21.737Z,7.10
2023-02-24T07:01:49.422Z,6.78
2023-02-24T07:04:17.896Z,6.50
2023-02-24T07:06:49.355Z,7.07
2023-02-24T07:09:18.768Z,7.30
2023-02-24T07:11:48.448Z,6.80
2023-02-24T07:14:15.433Z,7.43
2023-02-24T07:16:45.520Z,6.90
2023-02-24T07:19:15.914Z,6.80
2023-02-24T07:21:46.736Z,6.60
2023-02-24T07:24:20.324Z,7.22
2023-02-24T07:26:51.814Z,7.10
2023-02-24T07:29:19.156Z,6.65
2023-02-24T07:31:46.096Z,7.35
2023-02-24T07:34:15.072Z,8.10
2023-02-24T07:36:49.327Z,7.35
2023-02-24T07:39:17.154Z,7.22
2023-02-24T07:41:49.752Z,7.07
2023-02-24T07:44:18.934Z,6.32
2023-02-24T07:46:48.183Z,6.95
2023-02-24T07:49:19.810Z,7.00
2023-02-24T07:54:21.516Z,6.53
2023-02-24T07:56:56.598Z,7.50
2023-02-24T07:59:25.935Z,6.47
2023-02-24T08:01:55.777Z,7.05
2023-02-24T08:04:26.928Z,7.68
2023-02-24T08:06:59.120Z,7.30
2023-02-24T08:09:45.465Z,8.02
2023-02-24T08:12:18.529Z,7.65
2023-02-24T08:14:50.901Z,7.50
2023-02-24T08:17:20.323Z,7.38
2023-02-24T08:19:49.192Z,7.82
2023-02-24T08:22:19.848Z,7.38
2023-02-24T08:24:50.239Z,7.45
2023-02-24T08:27:20.269Z,8.18
2023-02-24T08:29:59.929Z,7.10
2023-02-24T08:32:52.596Z,8.60
2023-02-24T08:35:23.027Z,7.57
2023-02-24T08:37:54.216Z,7.57
2023-02-24T08:40:32.970Z,7.30
2023-02-24T08:43:19.299Z,7.88
2023-02-24T08:45:59.412Z,8.15
2023-02-24T08:48:37.857Z,7.35
2023-02-24T08:51:04.701Z,7.95
2023-02-24T08:53:31.624Z,8.95
2023-02-24T08:56:00.331Z,7.88
2023-02-24T08:58:27.302Z,9.10
2023-02-24T09:00:57.010Z,8.85
2023-02-24T09:03:29.195Z,7.90
2023-02-24T09:06:05.078Z,7.78
2023-02-24T09:08:40.441Z,7.63
2023-02-24T09:11:25.255Z,8.45
2023-02-24T09:13:51.950Z,9.23
2023-02-24T09:16:20.608Z,8.55
2023-02-24T09:19:07.447Z,8.88
2023-02-24T09:21:49.184Z,8.15
2023-02-24T09:24:27.050Z,8.00
2023-02-24T09:27:00.245Z,8.40
2023-02-24T09:29:49.280Z,8.13
2023-02-24T09:32:16.560Z,9.25
2023-02-24T09:34:44.175Z,9.20
2023-02-24T09:37:27.277Z,8.93
2023-02-24T09:39:54.686Z,7.90
2023-02-24T09:42:46.632Z,8.35
2023-02-24T09:45:33.062Z,8.73
2023-02-24T09:48:11.011Z,8.50
2023-02-24T09:51:03.089Z,8.82
2023-02-24T09:53:52.641Z,9.15
2023-02-24T09:56:31.143Z,9.23
2023-02-24T09:59:12.724Z,8.68
2023-02-24T10:02:12.172Z,8.50
2023-02-24T10:04:49.315Z,8.57
2023-02-24T10:07:24.409Z,8.73
2023-02-24T10:10:11.201Z,9.45
2023-02-24T10:12:40.367Z,9.73
2023-02-24T10:15:21.172Z,10.20
2023-02-24T10:17:58.343Z,8.98
2023-02-24T10:20:40.572Z,9.68
2023-02-24T10:23:32.972Z,9.63
2023-02-24T10:26:09.246Z,9.70
2023-02-24T10:29:29.530Z,8.93
2023-02-24T10:32:17.090Z,10.10
2023-02-24T10:34:44.702Z,9.55
2023-02-24T10:37:27.563Z,9.30
2023-02-24T10:40:00.358Z,9.75
2023-02-24T10:42:32.089Z,10.27
2023-02-24T10:47:58.576Z,8.90
2023-02-24T10:50:55.457Z,9.57
2023-02-24T10:53:28.728Z,9.05
2023-02-24T10:56:17.531Z,9.20
2023-02-24T10:58:53.563Z,9.80
2023-02-24T11:01:43.817Z,9.23
2023-02-24T11:04:28.663Z,9.05
2023-02-24T11:07:09.932Z,8.82
2023-02-24T11:09:52.169Z,8.80
2023-02-24T11:12:45.276Z,9.55
2023-02-24T11:15:40.225Z,10.50
2023-02-24T11:18:08.796Z,10.05
2023-02-24T11:20:49.776Z,10.45
2023-02-24T11:23:22.661Z,10.25
2023-02-24T11:25:58.973Z,9.80
2023-02-24T11:28:28.622Z,9.63
2023-02-24T11:31:28.742Z,10.40
2023-02-24T11:34:07.856Z,10.40
2023-02-24T11:36:43.849Z,9.32
2023-02-24T11:39:45.640Z,10.07
2023-02-24T11:42:16.785Z,10.00
2023-02-24T11:45:12.247Z,11.20
2023-02-24T11:47:45.296Z,10.35
2023-02-24T11:50:30.917Z,9.27
2023-02-24T11:53:03.600Z,10.02
2023-02-24T11:55:46.930Z,10.35
2023-02-24T11:58:46.557Z,9.65
2023-02-24T12:01:51.511Z,9.63
2023-02-24T12:04:37.842Z,10.63
2023-02-24T12:07:12.999Z,9.85
2023-02-24T12:09:58.298Z,10.02
2023-02-24T12:12:57.233Z,10.90
2023-02-24T12:15:46.833Z,9.88
2023-02-24T12:18:17.931Z,10.27
2023-02-24T12:20:51.106Z,9.77
2023-02-24T12:23:31.276Z,9.25
2023-02-24T12:26:42.752Z,10.20
2023-02-24T12:29:21.265Z,9.85
2023-02-24T12:32:16.937Z,10.18
2023-02-24T12:34:50.405Z,10.70
2023-02-24T12:37:42.581Z,11.25
2023-02-24T12:40:28.013Z,10.45
2023-02-24T12:43:05.383Z,9.23
2023-02-24T12:46:17.241Z,9.38
2023-02-24T12:49:19.172Z,10.10
2023-02-24T12:52:33.538Z,10.50
2023-02-24T12:55:03.122Z,9.88
2023-02-24T12:58:04.164Z,10.32
2023-02-24T13:00:50.658Z,10.70
2023-02-24T13:03:47.807Z,10.20
2023-02-24T13:06:25.517Z,9.60
2023-02-24T13:08:59.663Z,12.40
2023-02-24T13:11:37.569Z,11.43
2023-02-24T13:14:27.501Z,9.73
2023-02-24T13:17:09.341Z,10.40
2023-02-24T13:19:36.941Z,12.00
2023-02-24T13:22:08.800Z,10.20
2023-02-24T13:27:21.536Z,9.98
2023-02-24T13:29:51.108Z,10.68
2023-02-24T13:32:32.106Z,10.60
2023-02-24T13:35:03.772Z,10.45
2023-02-24T13:37:36.791Z,10.68
2023-02-24T13:40:16.591Z,9.80
2023-02-24T13:43:01.379Z,11.50
2023-02-24T13:45:31.624Z,9.77
2023-02-24T13:48:07.248Z,10.60
2023-02-24T13:51:05.139Z,9.88
2023-02-24T13:53:31.907Z,9.65
2023-02-24T13:56:23.196Z,9.73
2023-02-24T13:59:19.431Z,10.65
2023-02-24T14:01:50.173Z,10.45
2023-02-24T14:04:35.144Z,9.95
2023-02-24T14:07:08.963Z,9.70
2023-02-24T14:09:48.785Z,9.80
2023-02-24T14:12:36.021Z,10.07
2023-02-24T14:15:04.422Z,10.05
2023-02-24T14:17:37.715Z,9.43
2023-02-24T14:20:06.693Z,9.68
2023-02-24T14:22:34.746Z,11.27
2023-02-24T14:25:03.388Z,10.90
2023-02-24T14:27:31.126Z,10.80
2023-02-24T14:29:58.044Z,10.07
2023-02-24T14:32:27.520Z,9.77
2023-02-24T14:34:58.347Z,10.63
2023-02-24T14:37:29.058Z,10.68
2023-02-24T14:39:58.688Z,10.43
2023-02-24T14:42:27.099Z,11.18
2023-02-24T14:44:56.769Z,10.95
2023-02-24T14:47:26.437Z,11.80
2023-02-24T14:49:59.802Z,10.73
2023-02-24T14:52:44.639Z,10.88
2023-02-24T14:55:12.999Z,10.60
2023-02-24T14:57:48.458Z,10.68
2023-02-24T15:00:23.932Z,10.63
2023-02-24T15:02:57.025Z,11.10
2023-02-24T15:05:24.283Z,10.73
2023-02-24T15:07:51.930Z,11.25
2023-02-24T15:10:29.004Z,9.45
2023-02-24T15:13:12.219Z,10.13
2023-02-24T15:15:39.532Z,11.10
2023-02-24T15:18:20.679Z,10.30
2023-02-24T15:20:47.487Z,10.98
2023-02-24T15:23:29.164Z,11.50
2023-02-24T15:25:56.039Z,11.52
2023-02-24T15:28:33.300Z,11.95
2023-02-24T15:31:11.075Z,11.10
2023-02-24T15:33:41.626Z,10.93
2023-02-24T15:36:17.956Z,12.07
2023-02-24T15:38:46.285Z,12.00
2023-02-24T15:41:14.290Z,11.45
2023-02-24T15:43:45.749Z,10.90
2023-02-24T15:46:37.161Z,11.75
2023-02-24T15:49:05.563Z,11.52
2023-02-24T15:51:47.661Z,12.90
2023-02-24T15:54:20.574Z,12.13
2023-02-24T15:56:48.799Z,10.48
2023-02-24T15:59:18.286Z,11.93
2023-02-24T16:01:45.174Z,10.82
2023-02-24T16:04:12.065Z,11.90
2023-02-24T16:06:43.680Z,11.85
2023-02-24T16:09:15.373Z,10.48
2023-02-24T16:11:45.960Z,11.07
2023-02-24T16:14:16.657Z,11.63
2023-02-24T16:16:44.341Z,11.50
2023-02-24T16:19:14.373Z,12.55
2023-02-24T16:21:41.301Z,11.80
2023-02-24T16:24:08.321Z,11.15
2023-02-24T16:26:40.002Z,12.55
2023-02-24T16:29:11.702Z,11.25
2023-02-24T16:31:39.629Z,11.50
2023-02-24T16:34:07.621Z,11.18
2023-02-24T16:36:35.766Z,11.55
2023-02-24T16:39:04.849Z,13.32
2023-02-24T16:41:31.693Z,10.55
2023-02-24T16:43:58.452Z,11.07
2023-02-24T16:46:28.396Z,11.80
2023-02-24T16:48:55.286Z,11.82
2023-02-24T16:51:22.439Z,11.63
2023-02-24T16:53:49.177Z,12.20
2023-02-24T16:56:16.240Z,11.50
2023-02-24T16:58:43.094Z,11.60
2023-02-24T17:01:16.394Z,11.65
2023-02-24T17:03:46.093Z,12.13
2023-02-24T17:06:12.957Z,11.73
2023-02-24T17:08:41.642Z,12.68
2023-02-24T17:11:13.463Z,12.82
2023-02-24T17:13:40.552Z,12.63
2023-02-24T17:16:07.910Z,11.95
2023-02-24T17:18:34.828Z,12.38
2023-02-24T17:21:02.469Z,10.73
2023-02-24T17:23:29.305Z,12.30
2023-02-24T17:25:59.081Z,12.40
2023-02-24T17:28:26.846Z,12.13
2023-02-24T17:30:53.911Z,12.25
2023-02-24T17:33:20.872Z,12.63
2023-02-24T17:35:48.534Z,12.30
2023-02-24T17:38:17.358Z,12.18
2023-02-24T17:40:45.786Z,12.45
2023-02-24T17:43:13.088Z,11.73
2023-02-24T17:45:45.090Z,12.27
2023-02-24T17:48:13.398Z,11.88
2023-02-24T17:50:47.314Z,11.77
2023-02-24T17:53:14.961Z,12.88
2023-02-24T17:55:49.913Z,13.38
2023-02-24T17:58:26.693Z,12.68
2023-02-24T18:00:53.519Z,12.23
2023-02-24T18:03:20.771Z,12.48
2023-02-24T18:05:47.691Z,11.80
2023-02-24T18:08:14.666Z,12.23
2023-02-24T18:10:41.457Z,11.52
2023-02-24T18:13:08.187Z,11.88
2023-02-24T18:15:35.058Z,11.85
2023-02-24T18:18:01.808Z,12.50
2023-02-24T18:20:29.745Z,11.90
2023-02-24T18:22:57.054Z,11.80
2023-02-24T18:25:23.763Z,10.77
2023-02-24T18:27:50.550Z,11.45
2023-02-24T18:30:18.643Z,11.27
2023-02-24T18:32:45.873Z,10.95
2023-02-24T18:35:13.390Z,11.23
2023-02-24T18:37:40.193Z,11.27
2023-02-24T18:40:07.507Z,13.45
2023-02-24T18:42:34.246Z,12.05
2023-02-24T18:45:01.060Z,12.52
2023-02-24T18:47:28.369Z,11.73
2023-02-24T18:49:55.159Z,12.82
2023-02-24T18:52:22.054Z,11.98
2023-02-24T18:54:49.692Z,11.45
2023-02-24T18:57:16.501Z,12.45
2023-02-24T18:59:44.330Z,12.52
2023-02-24T19:02:11.476Z,11.90
2023-02-24T19:04:38.283Z,12.02
2023-02-24T19:07:05.410Z,11.90
2023-02-24T19:09:32.192Z,11.43
2023-02-24T19:11:58.940Z,11.68
2023-02-24T19:14:25.964Z,11.63
2023-02-24T19:16:52.866Z,12.80
2023-02-24T19:19:19.812Z,11.32
2023-02-24T19:21:48.278Z,12.10
2023-02-24T19:24:16.493Z,12.00
2023-02-24T19:26:45.767Z,12.55
2023-02-24T19:29:13.157Z,12.40
2023-02-24T19:31:40.562Z,12.63
2023-02-24T19:34:11.698Z,12.90
2023-02-24T19:36:38.709Z,12.68
2023-02-24T19:39:08.873Z,12.10
2023-02-24T19:41:36.899Z,12.52
2023-02-24T19:44:03.787Z,12.25
2023-02-24T19:46:34.303Z,12.50
2023-02-24T19:49:01.426Z,11.68
2023-02-24T19:51:28.451Z,11.32
2023-02-24T19:53:57.207Z,11.82
2023-02-24T19:56:25.957Z,12.40
2023-02-24T19:58:54.894Z,11.15
2023-02-24T20:01:23.003Z,12.35
2023-02-24T20:03:50.448Z,12.27
2023-02-24T20:06:39.028Z,12.27
2023-02-24T20:09:08.253Z,12.05
2023-02-24T20:11:37.080Z,12.63
2023-02-24T20:14:04.492Z,12.77
2023-02-24T20:16:34.936Z,11.95
2023-02-24T20:19:01.862Z,11.82
2023-02-24T20:21:29.201Z,12.25
2023-02-24T20:24:01.958Z,12.10
2023-02-24T20:26:29.861Z,12.68
2023-02-24T20:28:57.412Z,12.38
2023-02-24T20:31:24.406Z,11.30
2023-02-24T20:33:51.574Z,11.65
2023-02-24T20:36:21.950Z,10.75
2023-02-24T20:38:49.154Z,12.57
2023-02-24T20:41:16.866Z,12.30
2023-02-24T20:43:43.684Z,11.88
2023-02-24T20:46:27.287Z,11.88
2023-02-24T20:49:17.447Z,13.10
2023-02-24T20:51:44.540Z,12.20
2023-02-24T20:54:12.511Z,12.63
2023-02-24T20:56:41.379Z,12.23
2023-02-24T20:59:17.391Z,12.05
2023-02-24T21:01:47.355Z,13.38
2023-02-24T21:04:16.226Z,12.60
2023-02-24T21:06:43.082Z,13.02
2023-02-24T21:09:12.010Z,12.13
2023-02-24T21:11:39.148Z,12.43
2023-02-24T21:14:07.067Z,13.32
2023-02-24T21:16:37.220Z,12.18
2023-02-24T21:19:04.141Z,12.52
2023-02-24T21:21:30.948Z,13.88
2023-02-24T21:23:57.743Z,12.13
2023-02-24T21:26:26.989Z,12.70
2023-02-24T21:28:57.440Z,12.30
2023-02-24T21:31:24.867Z,12.75
2023-02-24T21:33:52.887Z,13.27
2023-02-24T21:36:21.582Z,13.02
2023-02-24T21:38:49.049Z,12.55
2023-02-24T21:41:16.161Z,12.70
2023-02-24T21:43:44.404Z,14.02
2023-02-24T21:46:13.567Z,13.75
2023-02-24T21:48:41.785Z,13.43
2023-02-24T21:51:11.147Z,13.15
2023-02-24T21:53:39.659Z,12.95
2023-02-24T21:56:18.669Z,12.98
2023-02-24T21:58:48.353Z,12.77
2023-02-24T22:01:24.377Z,12.13
2023-02-24T22:03:55.463Z,12.27
2023-02-24T22:06:22.783Z,12.43
2023-02-24T22:08:49.841Z,14.18
2023-02-24T22:11:18.097Z,12.52
2023-02-24T22:13:46.707Z,13.07
2023-02-24T22:16:18.192Z,15.25
2023-02-24T22:18:46.505Z,13.57
2023-02-24T22:21:17.791Z,13.30
2023-02-24T22:23:46.432Z,13.38
2023-02-24T22:26:14.807Z,13.40
2023-02-24T22:28:42.979Z,13.40
2023-02-24T22:31:12.112Z,13.68
2023-02-24T22:33:41.221Z,14.63
2023-02-24T22:36:10.951Z,13.32
2023-02-24T22:38:39.125Z,13.50
2023-02-24T22:41:10.863Z,13.23
2023-02-24T22:43:37.684Z,13.05
2023-02-24T22:46:10.808Z,12.80
2023-02-24T22:48:38.029Z,12.55
2023-02-24T22:51:07.465Z,13.68
2023-02-24T22:53:38.139Z,13.73
2023-02-24T22:56:06.312Z,13.20
2023-02-24T22:58:33.388Z,13.63
2023-02-24T23:01:00.360Z,13.05
2023-02-24T23:03:31.020Z,13.00
2023-02-24T23:05:59.438Z,13.45
2023-02-24T23:08:31.676Z,13.35
2023-02-24T23:11:07.817Z,13.70
2023-02-24T23:13:38.288Z,12.93
2023-02-24T23:16:07.648Z,13.77
2023-02-24T23:18:36.892Z,13.88
2023-02-24T23:21:08.096Z,14.05
2023-02-24T23:23:35.855Z,12.85
2023-02-24T23:26:03.709Z,12.48
2023-02-24T23:28:30.712Z,13.55
2023-02-24T23:30:57.796Z,12.80
2023-02-24T23:33:24.868Z,13.48
2023-02-24T23:35:51.658Z,12.73
2023-02-24T23:38:18.382Z,14.65
2023-02-24T23:40:50.566Z,12.63
2023-02-24T23:43:18.440Z,12.90
2023-02-24T23:45:45.532Z,13.00
2023-02-24T23:48:14.338Z,12.38
2023-02-24T23:50:42.909Z,12.93
2023-02-24T23:53:09.942Z,12.90
2023-02-24T23:55:40.129Z,13.20
2023-02-24T23:58:07.585Z,12.13
